aviador You're here:

KDFW Decoded Metar

DALLAS-FORT WORTH in TX, USA
Report Time2017-06-29 06:53:00
UTC Time2017-06-29 07:18:42
Flight Rules vfr VFR
Wind160° at 10 kt
W.Decomp.*RWY 17: 9.6 kt HW 2.8 kt LCW
RWY 13: 9.1 kt HW 4.1 kt RCW
RWY 18: 9.0 kt HW 4.4 kt LCW
W.Rank160° ranks 4
Current wind is above 160° avg. (9.5)
Visibility9999 m
Phenomena:N/A
Clouds:N/A
Expected CloudBase > 1,600 ft AGL from Temp-Dew spread
CeilingNone
Temp26°C (ISA +12)
Dew Point22°C (79% RH)
QNH1010 hPa
Density Alt2,425 ft
Elevation571 ft
Report Wrong Elevation
Raw Report
METAR KDFW 290653Z 16010KT 10SM CLR 26/22 A2984 RMK AO2 SLP096 T02610217=

Extra information for KDFW:More info

Metar Taf Metar & Taf Last 4 Metars F.Rules Stats Wind Profile Meteogram Temp Stats Airport Information Weather charts Add Link Nearby VenuesMetar ALERT Operation Metar Decoded Social comments

AIRNAV info for KDFW